Time;durP1;ratioP1;P1;durP2;ratioP2;P2;SDS_P1;SDS_P2;PMS_P1;PMS_P2;Temp;Humidity;BMP_temperature;BMP_pressure;BME280_temperature;BME280_humidity;BME280_pressure;Samples;Min_cycle;Max_cycle;Signal;HPM_P1;HPM_P2
2021/12/25 00:01:00;;;;;;;1999.90;999.90;;;8.60;99.90;;;;;;4970669;28;20441;-67
2021/12/25 00:03:27;;;;;;;1999.90;999.90;;;8.60;99.90;;;;;;4970501;28;20458;-68
2021/12/25 00:05:53;;;;;;;1999.90;999.90;;;8.60;99.90;;;;;;4970217;28;20411;-68
2021/12/25 00:08:23;;;;;;;1999.90;999.90;;;8.60;99.90;;;;;;4970415;28;20172;-66
2021/12/25 00:10:49;;;;;;;1999.90;999.90;;;8.60;99.90;;;;;;4970434;28;20454;-67
2021/12/25 00:13:15;;;;;;;1999.90;999.90;;;8.50;99.90;;;;;;4970394;28;20429;-68
2021/12/25 00:15:42;;;;;;;1999.90;999.90;;;8.50;99.90;;;;;;4970112;28;20887;-68
2021/12/25 00:18:08;;;;;;;1999.90;999.90;;;8.40;99.90;;;;;;4970351;28;20423;-68
2021/12/25 00:20:34;;;;;;;1999.90;999.90;;;8.40;99.90;;;;;;4970324;28;20475;-68
2021/12/25 00:23:04;;;;;;;1999.90;999.90;;;8.40;99.90;;;;;;4970156;28;20429;-69
2021/12/25 00:25:33;;;;;;;1999.90;999.90;;;8.40;99.90;;;;;;4970142;28;20435;-69
2021/12/25 00:28:21;;;;;;;1999.90;999.90;;;8.40;99.90;;;;;;4970387;28;20425;-69
2021/12/25 00:31:07;;;;;;;1999.90;999.90;;;8.20;99.90;;;;;;4970237;28;20419;-68
2021/12/25 00:36:12;;;;;;;1999.90;999.90;;;8.20;99.90;;;;;;4970117;28;20409;-68
2021/12/25 00:38:40;;;;;;;1999.90;999.90;;;8.10;99.90;;;;;;4970152;28;20406;-69
2021/12/25 00:41:06;;;;;;;1999.90;999.90;;;8.20;99.90;;;;;;4970178;28;20492;-68
2021/12/25 00:43:31;;;;;;;1999.90;999.90;;;8.20;99.90;;;;;;4969910;28;20543;-67
2021/12/25 00:45:57;;;;;;;1999.90;999.90;;;8.20;99.90;;;;;;4971831;28;20410;-68
2021/12/25 00:48:24;;;;;;;1999.90;999.90;;;8.20;99.90;;;;;;4973655;28;20248;-68
2021/12/25 00:50:49;;;;;;;1999.90;999.90;;;8.20;99.90;;;;;;4973423;28;20414;-68
2021/12/25 00:53:15;;;;;;;1999.90;999.90;;;8.10;99.90;;;;;;4973115;28;20209;-69
2021/12/25 00:55:41;;;;;;;1999.90;999.90;;;8.10;99.90;;;;;;4973193;28;20209;-68
2021/12/25 00:58:06;;;;;;;1999.90;999.90;;;8.10;99.90;;;;;;4973179;28;20199;-68
2021/12/25 01:00:32;;;;;;;1999.90;999.90;;;8.10;99.90;;;;;;4973275;28;20178;-68
2021/12/25 01:02:58;;;;;;;1999.90;999.90;;;8.00;99.90;;;;;;4973117;28;20440;-67
2021/12/25 01:05:24;;;;;;;1999.90;999.90;;;8.00;99.90;;;;;;4972861;28;20221;-69
2021/12/25 01:07:50;;;;;;;1999.90;999.90;;;8.00;99.90;;;;;;4973169;28;20220;-69
2021/12/25 01:10:18;;;;;;;1999.90;999.90;;;8.10;99.90;;;;;;4973196;28;20788;-69
2021/12/25 01:15:56;;;;;;;1999.90;999.90;;;8.10;99.90;;;;;;4972979;28;20467;-68
2021/12/25 01:31:21;;;;;;;1999.90;999.90;;;7.80;99.90;;;;;;4972998;28;20410;-69
2021/12/25 01:34:11;;;;;;;1999.90;999.90;;;7.80;99.90;;;;;;4972689;28;20432;-68
2021/12/25 01:39:30;;;;;;;1999.90;999.90;;;7.80;99.90;;;;;;4991100;28;20423;-67
2021/12/25 01:42:05;;;;;;;1999.90;999.90;;;7.90;99.90;;;;;;4972702;28;20452;-68
2021/12/25 01:49:57;;;;;;;1999.90;999.90;;;7.90;99.90;;;;;;4972738;28;20411;-68
2021/12/25 01:52:26;;;;;;;1999.90;999.90;;;7.90;99.90;;;;;;4972481;28;20680;-68
2021/12/25 01:55:00;;;;;;;1999.90;999.90;;;7.90;99.90;;;;;;4972020;28;20464;-68
2021/12/25 01:57:26;;;;;;;1999.90;999.90;;;7.90;99.90;;;;;;4971632;28;20417;-68
2021/12/25 01:59:52;;;;;;;1999.90;999.90;;;7.90;99.90;;;;;;4972417;28;20414;-69
2021/12/25 02:02:18;;;;;;;1999.90;999.90;;;7.80;99.90;;;;;;4972417;28;20871;-68
2021/12/25 02:04:43;;;;;;;1999.90;999.90;;;7.80;99.90;;;;;;4971985;28;20221;-68
2021/12/25 02:07:09;;;;;;;1999.90;999.90;;;7.80;99.90;;;;;;4972215;28;20174;-69
2021/12/25 02:09:35;;;;;;;1999.90;999.90;;;7.70;99.90;;;;;;4972257;28;20178;-69
2021/12/25 02:12:00;;;;;;;1999.90;999.90;;;7.60;99.90;;;;;;4972227;28;20830;-68
2021/12/25 02:14:28;;;;;;;1999.90;999.90;;;7.70;99.90;;;;;;4971935;28;20263;-68
2021/12/25 02:17:00;;;;;;;1999.90;999.90;;;7.60;99.90;;;;;;4972101;28;20705;-68
2021/12/25 02:19:41;;;;;;;1999.90;999.90;;;7.60;99.90;;;;;;4972189;28;20468;-69
2021/12/25 02:22:09;;;;;;;1999.90;999.90;;;7.50;99.90;;;;;;4971978;28;20414;-69
2021/12/25 02:24:38;;;;;;;1999.90;999.90;;;7.40;99.90;;;;;;4971784;28;20470;-68
2021/12/25 02:27:05;;;;;;;1999.90;999.90;;;7.40;99.90;;;;;;4972315;28;20903;-69
2021/12/25 02:29:31;;;;;;;1999.90;999.90;;;7.30;99.90;;;;;;4972031;28;20416;-68
2021/12/25 02:31:58;;;;;;;1999.90;999.90;;;7.30;99.90;;;;;;4971891;28;20438;-68
2021/12/25 02:34:24;;;;;;;1999.90;999.90;;;7.30;99.90;;;;;;4971450;28;20925;-68
2021/12/25 02:36:50;;;;;;;1999.90;999.90;;;7.30;99.90;;;;;;4971820;28;20414;-68
2021/12/25 02:39:16;;;;;;;1999.90;999.90;;;7.20;99.90;;;;;;4971787;28;20424;-69
2021/12/25 02:41:42;;;;;;;1999.90;999.90;;;7.30;99.90;;;;;;4971842;28;20179;-69
2021/12/25 02:44:08;;;;;;;1999.90;999.90;;;7.30;99.90;;;;;;4971319;28;20458;-69
2021/12/25 02:46:34;;;;;;;1999.90;999.90;;;7.20;99.90;;;;;;4971757;28;20456;-69
2021/12/25 02:49:00;;;;;;;1999.90;999.90;;;7.20;99.90;;;;;;4971649;28;20417;-69
2021/12/25 02:51:26;;;;;;;1999.90;999.90;;;7.20;99.90;;;;;;4971537;28;20462;-68
2021/12/25 02:53:51;;;;;;;1999.90;999.90;;;7.20;99.90;;;;;;4971436;28;20214;-67
2021/12/25 02:56:17;;;;;;;1999.90;999.90;;;7.20;99.90;;;;;;4971272;28;20414;-68
2021/12/25 02:58:43;;;;;;;1999.90;999.90;;;7.10;99.90;;;;;;4971500;28;20341;-67
2021/12/25 03:01:14;;;;;;;1999.90;999.90;;;7.10;99.90;;;;;;4971746;28;20245;-68
2021/12/25 03:03:41;;;;;;;1999.90;999.90;;;7.10;99.90;;;;;;4971314;28;20209;-68
2021/12/25 03:06:08;;;;;;;1999.90;999.90;;;7.20;99.90;;;;;;4971177;28;20497;-67
2021/12/25 03:08:35;;;;;;;1999.90;999.90;;;7.20;99.90;;;;;;4971297;28;20418;-67
2021/12/25 03:11:03;;;;;;;1999.90;999.90;;;7.20;99.90;;;;;;4971382;28;20413;-68
2021/12/25 03:15:55;;;;;;;1999.90;999.90;;;7.20;99.90;;;;;;4971016;28;20413;-68
2021/12/25 03:18:26;;;;;;;1999.90;999.90;;;7.20;99.90;;;;;;4971145;28;20504;-67
2021/12/25 03:20:57;;;;;;;1999.90;999.90;;;7.20;99.90;;;;;;4971241;28;20247;-68
2021/12/25 03:23:26;;;;;;;1999.90;999.90;;;7.20;99.90;;;;;;4971158;28;20517;-67
2021/12/25 03:25:53;;;;;;;1999.90;999.90;;;7.10;99.90;;;;;;4970836;28;20406;-68
2021/12/25 03:28:22;;;;;;;1999.90;999.90;;;7.10;99.90;;;;;;4971059;28;20421;-67
2021/12/25 03:30:49;;;;;;;1999.90;999.90;;;7.10;99.90;;;;;;4970955;28;20417;-68
2021/12/25 03:33:17;;;;;;;1999.90;999.90;;;7.00;99.90;;;;;;4971042;28;20430;-68
2021/12/25 03:35:43;;;;;;;1999.90;999.90;;;7.10;99.90;;;;;;4970672;28;20498;-68
2021/12/25 03:38:12;;;;;;;1999.90;999.90;;;7.00;99.90;;;;;;4970903;28;20406;-68
2021/12/25 03:40:39;;;;;;;1999.90;999.90;;;6.90;99.90;;;;;;4970920;28;20410;-68
2021/12/25 03:43:05;;;;;;;1999.90;999.90;;;6.90;99.90;;;;;;4970782;28;20441;-68
2021/12/25 03:45:32;;;;;;;1999.90;999.90;;;6.80;99.90;;;;;;4970386;28;20464;-67
2021/12/25 03:48:11;;;;;;;1999.90;999.90;;;6.80;99.90;;;;;;4970958;28;20410;-68
2021/12/25 03:53:37;;;;;;;1999.90;999.90;;;6.70;99.90;;;;;;4970786;28;20453;-67
2021/12/25 03:58:50;;;;;;;1999.90;999.90;;;6.70;99.90;;;;;;4970929;28;20483;-68
2021/12/25 04:04:02;;;;;;;1999.90;999.90;;;6.80;99.90;;;;;;4970399;28;20873;-67
2021/12/25 04:06:27;;;;;;;1999.90;999.90;;;6.70;99.90;;;;;;4970739;28;20386;-67
2021/12/25 04:08:53;;;;;;;1999.90;999.90;;;6.70;99.90;;;;;;4970503;28;20421;-67
2021/12/25 04:11:30;;;;;;;1999.90;999.90;;;6.70;99.90;;;;;;4970488;28;20166;-68
2021/12/25 04:13:57;;;;;;;1999.90;999.90;;;6.70;99.90;;;;;;4970330;28;20686;-68
2021/12/25 04:16:24;;;;;;;1999.90;999.90;;;6.70;99.90;;;;;;4970118;28;20449;-68
2021/12/25 04:18:49;;;;;;;1999.90;999.90;;;6.60;99.90;;;;;;4970317;28;20493;-68
2021/12/25 04:21:16;;;;;;;1999.90;999.90;;;6.60;99.90;;;;;;4975625;28;20967;-67
2021/12/25 04:23:43;;;;;;;1999.90;999.90;;;6.50;99.90;;;;;;4976571;28;20204;-67
2021/12/25 04:26:09;;;;;;;1999.90;999.90;;;6.40;99.90;;;;;;4976589;28;20842;-67
2021/12/25 05:03:52;;;;;;;1999.90;999.90;;;6.20;99.90;;;;;;4976232;28;20888;-66
2021/12/25 05:06:17;;;;;;;1999.90;999.90;;;6.00;99.90;;;;;;4976056;28;20808;-66
2021/12/25 05:08:43;;;;;;;1999.90;999.90;;;6.00;99.90;;;;;;4976253;28;20413;-67
2021/12/25 05:11:09;;;;;;;1999.90;999.90;;;6.00;99.90;;;;;;4976238;28;20166;-66
2021/12/25 05:13:35;;;;;;;1999.90;999.90;;;6.00;99.90;;;;;;4976089;28;20202;-67
2021/12/25 05:16:02;;;;;;;1999.90;999.90;;;5.90;99.90;;;;;;4975773;28;20205;-67
2021/12/25 05:18:29;;;;;;;1999.90;999.90;;;5.90;99.90;;;;;;4976032;28;20421;-67
2021/12/25 05:20:54;;;;;;;1999.90;999.90;;;5.80;99.90;;;;;;4976081;28;20470;-68
2021/12/25 05:23:20;;;;;;;1999.90;999.90;;;5.70;99.90;;;;;;4975959;28;20433;-68
2021/12/25 05:25:48;;;;;;;1999.90;999.90;;;5.70;99.90;;;;;;4975777;28;20162;-67
2021/12/25 05:28:23;;;;;;;1999.90;999.90;;;5.70;99.90;;;;;;4976018;28;20182;-68
2021/12/25 05:30:48;;;;;;;1999.90;999.90;;;5.70;99.90;;;;;;4975484;28;20408;-67
2021/12/25 05:33:14;;;;;;;1999.90;999.90;;;5.70;99.90;;;;;;4971851;28;20421;-68
2021/12/25 05:35:40;;;;;;;1999.90;999.90;;;5.60;99.90;;;;;;4972448;28;20228;-66
2021/12/25 05:38:12;;;;;;;1999.90;999.90;;;5.50;99.90;;;;;;4972660;28;20170;-67
2021/12/25 05:40:38;;;;;;;1999.90;999.90;;;5.50;99.90;;;;;;4972862;28;20228;-66
2021/12/25 05:43:04;;;;;;;1999.90;999.90;;;5.60;99.90;;;;;;4972702;28;20422;-66
2021/12/25 05:45:30;;;;;;;1999.90;999.90;;;5.50;99.90;;;;;;4972318;28;20202;-66
2021/12/25 05:47:56;;;;;;;1999.90;999.90;;;5.50;99.90;;;;;;4972592;28;20232;-66
2021/12/25 05:50:22;;;;;;;1999.90;999.90;;;5.40;99.90;;;;;;4972547;28;20398;-66
2021/12/25 05:52:47;;;;;;;1999.90;999.90;;;5.40;99.90;;;;;;4972336;28;20651;-67
2021/12/25 05:55:13;;;;;;;1999.90;999.90;;;5.40;99.90;;;;;;4972214;28;20579;-67
2021/12/25 05:57:39;;;;;;;1999.90;999.90;;;5.30;99.90;;;;;;4972578;28;20175;-66
2021/12/25 06:00:07;;;;;;;1999.90;999.90;;;5.30;99.90;;;;;;4972388;28;20266;-67
2021/12/25 06:02:32;;;;;;;1999.90;999.90;;;5.30;99.90;;;;;;4972262;28;20183;-66
2021/12/25 06:05:00;;;;;;;1999.90;999.90;;;5.30;99.90;;;;;;4971923;28;20831;-67
2021/12/25 06:07:26;;;;;;;1999.90;999.90;;;5.30;99.90;;;;;;4972275;28;20173;-66
2021/12/25 06:09:52;;;;;;;1999.90;999.90;;;5.30;99.90;;;;;;4972225;28;20902;-67
2021/12/25 06:12:17;;;;;;;1999.90;999.90;;;5.20;99.90;;;;;;4972191;28;20174;-67
2021/12/25 06:14:44;;;;;;;1999.90;999.90;;;5.20;99.90;;;;;;4971816;28;20199;-67
2021/12/25 06:17:10;;;;;;;1999.90;999.90;;;5.20;99.90;;;;;;4972105;28;20166;-66
2021/12/25 06:19:36;;;;;;;1999.90;999.90;;;5.10;99.90;;;;;;4972047;28;20177;-66
2021/12/25 06:22:01;;;;;;;1999.90;999.90;;;5.00;99.90;;;;;;4972112;28;20175;-66
2021/12/25 06:24:29;;;;;;;1999.90;999.90;;;5.00;99.90;;;;;;4971788;28;20206;-66
2021/12/25 06:26:55;;;;;;;1999.90;999.90;;;5.00;99.90;;;;;;4972089;28;20549;-66
2021/12/25 06:29:22;;;;;;;1999.90;999.90;;;5.10;99.90;;;;;;4971917;28;20174;-67
2021/12/25 06:31:48;;;;;;;1999.90;999.90;;;5.10;99.90;;;;;;4971923;28;20201;-68
2021/12/25 06:34:13;;;;;;;1999.90;999.90;;;5.10;99.90;;;;;;4971569;28;20194;-66
2021/12/25 06:36:39;;;;;;;1999.90;999.90;;;5.10;99.90;;;;;;4971840;28;20179;-68
2021/12/25 06:39:05;;;;;;;1999.90;999.90;;;5.00;99.90;;;;;;4971808;28;20542;-68
2021/12/25 06:41:31;;;;;;;1999.90;999.90;;;4.90;99.90;;;;;;4971763;28;20179;-68
2021/12/25 06:43:56;;;;;;;1999.90;999.90;;;4.90;99.90;;;;;;4971152;28;20202;-68
2021/12/25 06:46:22;;;;;;;1999.90;999.90;;;4.80;99.90;;;;;;4971525;28;20638;-66
2021/12/25 06:48:48;;;;;;;1999.90;999.90;;;4.80;99.90;;;;;;4971685;28;20216;-67
2021/12/25 06:51:14;;;;;;;1999.90;999.90;;;4.70;99.90;;;;;;4971711;28;20923;-69
2021/12/25 06:53:39;;;;;;;1999.90;999.90;;;4.60;99.90;;;;;;4971543;28;20220;-68
2021/12/25 06:56:05;;;;;;;1999.90;999.90;;;4.60;99.90;;;;;;4971605;28;20726;-68
2021/12/25 06:58:31;;;;;;;1999.90;999.90;;;4.70;99.90;;;;;;4971553;28;20212;-67
2021/12/25 07:00:56;;;;;;;1999.90;999.90;;;4.70;99.90;;;;;;4971485;28;20216;-69
2021/12/25 07:03:22;;;;;;;1999.90;999.90;;;4.60;99.90;;;;;;4971424;28;20194;-68
2021/12/25 07:05:47;;;;;;;1999.90;999.90;;;4.70;99.90;;;;;;4971162;28;20166;-67
2021/12/25 07:08:13;;;;;;;1999.90;999.90;;;4.60;99.90;;;;;;4971452;28;20173;-68
2021/12/25 07:10:38;;;;;;;1999.90;999.90;;;4.60;99.90;;;;;;4971305;28;20257;-67
2021/12/25 07:13:05;;;;;;;1999.90;999.90;;;4.50;99.90;;;;;;4971267;28;20656;-68
2021/12/25 07:15:30;;;;;;;1999.90;999.90;;;4.60;99.90;;;;;;4971070;28;20235;-68
2021/12/25 07:17:56;;;;;;;1999.90;999.90;;;4.60;99.90;;;;;;4971217;28;20982;-68
2021/12/25 07:20:21;;;;;;;1999.90;999.90;;;4.60;99.90;;;;;;4971266;28;20632;-67
2021/12/25 07:22:47;;;;;;;1999.90;999.90;;;4.50;99.90;;;;;;4971226;28;20183;-67
2021/12/25 07:25:13;;;;;;;1999.90;999.90;;;4.50;99.90;;;;;;4970909;28;20203;-68
2021/12/25 07:27:38;;;;;;;1999.90;999.90;;;4.60;99.90;;;;;;4971133;28;20178;-67
2021/12/25 07:30:06;;;;;;;1999.90;999.90;;;4.50;99.90;;;;;;4971194;28;20185;-67
2021/12/25 07:32:32;;;;;;;1999.90;999.90;;;4.50;99.90;;;;;;4971009;28;20174;-67
2021/12/25 07:34:57;;;;;;;1999.90;999.90;;;4.40;99.90;;;;;;4970759;28;20412;-67
2021/12/25 07:37:23;;;;;;;1999.90;999.90;;;4.50;99.90;;;;;;4971060;28;20413;-68
2021/12/25 07:39:49;;;;;;;1999.90;999.90;;;4.50;99.90;;;;;;4970980;28;20750;-68
2021/12/25 07:42:15;;;;;;;1999.90;999.90;;;4.50;99.90;;;;;;4970964;28;20206;-68
2021/12/25 07:44:40;;;;;;;1999.90;999.90;;;4.50;99.90;;;;;;4970486;28;20605;-68
2021/12/25 07:47:10;;;;;;;1999.90;999.90;;;4.50;99.90;;;;;;4970843;28;20193;-68
2021/12/25 07:49:37;;;;;;;1999.90;999.90;;;4.60;99.90;;;;;;4970956;28;20198;-68
2021/12/25 07:52:04;;;;;;;1999.90;999.90;;;4.50;99.90;;;;;;4970830;28;20406;-68
2021/12/25 07:54:30;;;;;;;1999.90;999.90;;;4.40;99.90;;;;;;4969541;28;20506;-67
2021/12/25 07:56:55;;;;;;;1999.90;999.90;;;4.40;99.90;;;;;;4970598;28;20409;-69
2021/12/25 07:59:21;;;;;;;1999.90;999.90;;;4.40;99.90;;;;;;4970676;28;20175;-68
2021/12/25 08:01:48;;;;;;;1999.90;999.90;;;4.40;99.90;;;;;;4970536;28;20178;-68
2021/12/25 08:04:14;;;;;;;1999.90;999.90;;;4.40;99.90;;;;;;4970372;28;20217;-68
2021/12/25 08:06:40;;;;;;;1999.90;999.90;;;4.20;99.90;;;;;;4970568;28;20428;-69
2021/12/25 08:09:06;;;;;;;1999.90;999.90;;;4.20;99.90;;;;;;4970567;28;20201;-69
2021/12/25 08:11:31;;;;;;;1999.90;999.90;;;4.30;99.90;;;;;;4970579;28;20640;-67
2021/12/25 08:13:58;;;;;;;1999.90;999.90;;;4.30;99.90;;;;;;4970297;28;20487;-68
2021/12/25 08:16:23;;;;;;;1999.90;999.90;;;4.30;99.90;;;;;;4970251;28;20182;-68
2021/12/25 08:18:49;;;;;;;1999.90;999.90;;;4.30;99.90;;;;;;4970449;28;20784;-68
2021/12/25 08:21:15;;;;;;;1999.90;999.90;;;4.30;99.90;;;;;;4970352;28;20421;-68
2021/12/25 08:23:41;;;;;;;1999.90;999.90;;;4.40;99.90;;;;;;4970324;28;20206;-68
2021/12/25 08:26:08;;;;;;;1999.90;999.90;;;4.30;99.90;;;;;;4970021;28;20171;-67
2021/12/25 08:28:33;;;;;;;1999.90;999.90;;;4.40;99.90;;;;;;4970273;28;20440;-69
2021/12/25 08:30:59;;;;;;;1999.90;999.90;;;4.40;99.90;;;;;;4970211;28;20202;-68
2021/12/25 08:33:25;;;;;;;1999.90;999.90;;;4.30;99.90;;;;;;4970249;28;20194;-67
2021/12/25 08:35:51;;;;;;;1999.90;999.90;;;4.30;99.90;;;;;;4969954;28;20171;-68
2021/12/25 08:38:16;;;;;;;1999.90;999.90;;;4.30;99.90;;;;;;4970290;28;20186;-68
2021/12/25 08:40:43;;;;;;;1999.90;999.90;;;4.30;99.90;;;;;;4970179;28;20744;-69
2021/12/25 08:43:10;;;;;;;1999.90;999.90;;;4.40;99.90;;;;;;4970000;28;20285;-67
2021/12/25 08:45:48;;;;;;;1999.90;999.90;;;4.40;99.90;;;;;;4969908;28;20545;-68
2021/12/25 08:48:24;;;;;;;1999.90;999.90;;;4.40;99.90;;;;;;4970324;28;20447;-67
2021/12/25 08:50:56;;;;;;;1999.90;999.90;;;4.40;99.90;;;;;;4970077;28;20401;-68
2021/12/25 08:53:24;;;;;;;1999.90;999.90;;;4.40;99.90;;;;;;4969836;28;20642;-68
2021/12/25 08:55:51;;;;;;;1999.90;999.90;;;4.30;99.90;;;;;;4969598;28;20406;-67
2021/12/25 08:58:18;;;;;;;1999.90;999.90;;;4.20;99.90;;;;;;4969991;28;20448;-68
2021/12/25 09:00:45;;;;;;;1999.90;999.90;;;4.20;99.90;;;;;;4969962;28;20187;-67
2021/12/25 09:03:11;;;;;;;1999.90;999.90;;;4.10;99.90;;;;;;4969955;28;20191;-68
2021/12/25 09:05:36;;;;;;;1999.90;999.90;;;4.00;99.90;;;;;;4969770;28;20213;-68
2021/12/25 09:08:03;;;;;;;1999.90;999.90;;;4.00;99.90;;;;;;4973227;28;20636;-67
2021/12/25 09:10:29;;;;;;;1999.90;999.90;;;4.00;99.90;;;;;;4973259;28;20258;-68
2021/12/25 09:12:56;;;;;;;1999.90;999.90;;;4.20;99.90;;;;;;4973213;28;20190;-66
2021/12/25 09:15:22;;;;;;;1999.90;999.90;;;4.30;99.90;;;;;;4970827;28;20183;-66
2021/12/25 09:17:48;;;;;;;1999.90;999.90;;;4.30;99.90;;;;;;4956028;28;20419;-66
2021/12/25 09:20:19;;;;;;;1999.90;999.90;;;4.30;99.90;;;;;;4953884;29;20410;-66
2021/12/25 09:22:45;;;;;;;1999.90;999.90;;;4.30;99.90;;;;;;4953526;28;20676;-66
2021/12/25 09:25:10;;;;;;;1999.90;999.90;;;4.30;99.90;;;;;;4953201;28;20456;-66
2021/12/25 09:27:36;;;;;;;1999.90;999.90;;;4.40;99.90;;;;;;4953621;28;20919;-66
2021/12/25 09:30:03;;;;;;;1999.90;999.90;;;4.40;99.90;;;;;;4958017;28;20222;-66
2021/12/25 09:32:28;;;;;;;1999.90;999.90;;;4.40;99.90;;;;;;4954138;28;20538;-66
2021/12/25 09:34:54;;;;;;;1999.90;999.90;;;4.40;99.90;;;;;;4953200;28;20483;-66
2021/12/25 09:37:20;;;;;;;1999.90;999.90;;;4.40;99.90;;;;;;4953527;28;20167;-66
2021/12/25 09:39:46;;;;;;;1999.90;999.90;;;4.20;99.90;;;;;;4953348;28;20179;-66
2021/12/25 09:42:12;;;;;;;1999.90;999.90;;;4.20;99.90;;;;;;4953437;28;20419;-66
2021/12/25 09:44:38;;;;;;;1999.90;999.90;;;4.20;99.90;;;;;;4953100;28;20458;-66
2021/12/25 09:47:04;;;;;;;1999.90;999.90;;;4.30;99.90;;;;;;4953379;28;20183;-66
2021/12/25 09:49:30;;;;;;;1999.90;999.90;;;4.30;99.90;;;;;;4947500;28;20580;-66
2021/12/25 09:51:56;;;;;;;1999.90;999.90;;;4.30;99.90;;;;;;4951251;28;20175;-66
2021/12/25 09:54:22;;;;;;;1999.90;999.90;;;4.40;99.90;;;;;;4951087;28;20541;-66
2021/12/25 09:56:49;;;;;;;1999.90;999.90;;;4.40;99.90;;;;;;4951292;29;20523;-66
2021/12/25 09:59:16;;;;;;;1999.90;999.90;;;4.30;99.90;;;;;;4951492;28;20183;-66
2021/12/25 10:01:50;;;;;;;1999.90;999.90;;;4.30;99.90;;;;;;4951311;28;20186;-67
2021/12/25 10:04:36;;;;;;;1999.90;999.90;;;4.30;99.90;;;;;;4950842;28;20450;-67
2021/12/25 10:07:16;;;;;;;1999.90;999.90;;;4.50;99.90;;;;;;4951541;28;20175;-67
2021/12/25 10:09:42;;;;;;;1999.90;999.90;;;4.60;99.90;;;;;;4952206;29;20513;-67
2021/12/25 10:12:13;;;;;;;1999.90;999.90;;;4.60;99.90;;;;;;4952052;29;20155;-67
2021/12/25 10:14:43;;;;;;;1999.90;999.90;;;4.70;99.90;;;;;;4951476;28;20270;-67
2021/12/25 10:17:20;;;;;;;1999.90;999.90;;;4.80;99.90;;;;;;4951562;28;20541;-66
2021/12/25 10:20:20;;;;;;;1999.90;999.90;;;4.70;99.90;;;;;;4951224;28;20407;-66
2021/12/25 10:23:07;;;;;;;1999.90;999.90;;;4.60;99.90;;;;;;4961575;28;20189;-67
2021/12/25 10:25:47;;;;;;;1999.90;999.90;;;4.60;99.90;;;;;;4951682;28;20593;-66
2021/12/25 10:28:15;;;;;;;1999.90;999.90;;;4.50;99.90;;;;;;4952504;28;20399;-67
2021/12/25 10:30:55;;;;;;;1999.90;999.90;;;4.60;99.90;;;;;;4951005;28;20406;-66
2021/12/25 10:33:37;;;;;;;1999.90;999.90;;;4.70;99.90;;;;;;4950645;28;20183;-66
2021/12/25 10:36:31;;;;;;;1999.90;999.90;;;4.70;99.90;;;;;;4951141;28;20587;-66
2021/12/25 10:39:29;;;;;;;1999.90;999.90;;;4.80;99.90;;;;;;4951085;28;20970;-66
2021/12/25 10:42:01;;;;;;;1999.90;999.90;;;4.80;99.90;;;;;;4961949;28;20187;-66
2021/12/25 10:44:36;;;;;;;1999.90;999.90;;;4.80;99.90;;;;;;4951913;28;20474;-67
2021/12/25 10:47:11;;;;;;;1999.90;999.90;;;4.70;99.90;;;;;;4951330;28;21225;-67
2021/12/25 10:49:52;;;;;;;1999.90;999.90;;;4.70;99.90;;;;;;4950766;28;20412;-66
2021/12/25 10:52:22;;;;;;;1999.90;999.90;;;4.70;99.90;;;;;;4950808;28;20468;-67
2021/12/25 10:54:56;;;;;;;1999.90;999.90;;;4.70;99.90;;;;;;4949872;28;21256;-68
2021/12/25 10:57:40;;;;;;;1999.90;999.90;;;4.80;99.90;;;;;;4950675;28;20183;-68
2021/12/25 11:00:13;;;;;;;1999.90;999.90;;;4.80;99.90;;;;;;4950631;28;20422;-69
2021/12/25 11:02:47;;;;;;;1999.90;999.90;;;4.70;99.90;;;;;;4950085;28;20976;-68
2021/12/25 11:05:23;;;;;;;1999.90;999.90;;;4.70;99.90;;;;;;4950309;29;20458;-68
2021/12/25 11:08:05;;;;;;;1999.90;999.90;;;4.60;99.90;;;;;;4950650;28;20403;-69
2021/12/25 11:10:31;;;;;;;1999.90;999.90;;;4.60;99.90;;;;;;4949792;28;20644;-68
2021/12/25 11:12:57;;;;;;;1999.90;999.90;;;4.50;99.90;;;;;;4950278;28;20241;-68
2021/12/25 11:15:27;;;;;;;1999.90;999.90;;;4.60;99.90;;;;;;4950157;28;20783;-69
2021/12/25 11:18:04;;;;;;;1999.90;999.90;;;4.70;99.90;;;;;;4950266;28;20551;-69
2021/12/25 11:20:33;;;;;;;1999.90;999.90;;;4.70;99.90;;;;;;4950065;28;20927;-69
2021/12/25 11:23:00;;;;;;;1999.90;999.90;;;4.70;99.90;;;;;;4949953;28;20512;-67
2021/12/25 11:25:29;;;;;;;1999.90;999.90;;;4.70;99.90;;;;;;4949677;28;20221;-68
2021/12/25 11:27:55;;;;;;;1999.90;999.90;;;4.70;99.90;;;;;;4950337;28;20174;-67
2021/12/25 11:30:23;;;;;;;1999.90;999.90;;;4.70;99.90;;;;;;4949042;28;20762;-69
2021/12/25 11:32:50;;;;;;;1999.90;999.90;;;4.60;99.90;;;;;;4949541;28;20538;-68
2021/12/25 11:35:18;;;;;;;1999.90;999.90;;;4.70;99.90;;;;;;4949915;28;20167;-68
2021/12/25 11:37:45;;;;;;;1999.90;999.90;;;4.70;99.90;;;;;;4950053;28;20646;-67
2021/12/25 11:40:12;;;;;;;1999.90;999.90;;;4.70;99.90;;;;;;4949535;28;20916;-68
2021/12/25 11:42:44;;;;;;;1999.90;999.90;;;4.80;99.90;;;;;;4949900;28;20415;-68
2021/12/25 11:45:16;;;;;;;1999.90;999.90;;;4.80;99.90;;;;;;4949626;28;20986;-67
2021/12/25 11:47:43;;;;;;;1999.90;999.90;;;4.70;99.90;;;;;;4949874;28;20457;-68
2021/12/25 11:50:43;;;;;;;1999.90;999.90;;;4.60;99.90;;;;;;4949702;28;20837;-69
2021/12/25 11:53:25;;;;;;;1999.90;999.90;;;4.60;99.90;;;;;;4960031;28;20222;-69
2021/12/25 11:58:39;;;;;;;1999.90;999.90;;;4.70;99.90;;;;;;4950023;28;20800;-69
2021/12/25 12:01:22;;;;;;;1999.90;999.90;;;4.80;99.90;;;;;;4949492;28;20432;-68
2021/12/25 12:03:54;;;;;;;1999.90;999.90;;;4.80;99.90;;;;;;4949684;29;20893;-69
2021/12/25 12:06:41;;;;;;;1999.90;999.90;;;4.90;99.90;;;;;;4949527;28;20183;-69
2021/12/25 12:09:10;;;;;;;1999.90;999.90;;;4.90;99.90;;;;;;4952068;28;20423;-68
2021/12/25 12:11:40;;;;;;;1999.90;999.90;;;4.70;99.90;;;;;;4949490;28;20407;-69
2021/12/25 12:14:25;;;;;;;1999.90;999.90;;;4.60;99.90;;;;;;4949365;28;20606;-69
2021/12/25 12:17:01;;;;;;;1999.90;999.90;;;4.70;99.90;;;;;;4949378;28;20253;-68
2021/12/25 12:19:30;;;;;;;1999.90;999.90;;;4.80;99.90;;;;;;4949480;28;20182;-69
2021/12/25 12:21:56;;;;;;;1999.90;999.90;;;5.00;99.90;;;;;;4949331;28;20492;-68
2021/12/25 12:24:38;;;;;;;1999.90;999.90;;;5.10;99.90;;;;;;4948687;28;20528;-69
2021/12/25 12:27:04;;;;;;;1999.90;999.90;;;5.10;99.90;;;;;;4949780;28;20414;-69
2021/12/25 12:29:40;;;;;;;1999.90;999.90;;;4.90;99.90;;;;;;4949337;28;20403;-69
2021/12/25 12:32:27;;;;;;;1999.90;999.90;;;5.00;99.90;;;;;;4948789;28;20410;-68
2021/12/25 12:34:53;;;;;;;1999.90;999.90;;;5.00;99.90;;;;;;4951965;28;20842;-68
2021/12/25 12:37:23;;;;;;;1999.90;999.90;;;5.00;99.90;;;;;;4964853;28;20493;-69
2021/12/25 12:40:01;;;;;;;1999.90;999.90;;;4.90;99.90;;;;;;4968162;28;20513;-69
2021/12/25 12:42:43;;;;;;;1999.90;999.90;;;5.00;99.90;;;;;;4971365;28;20445;-69
2021/12/25 12:45:13;;;;;;;1999.90;999.90;;;4.90;99.90;;;;;;4971662;28;20460;-69
2021/12/25 12:47:40;;;;;;;1999.90;999.90;;;4.90;99.90;;;;;;4971578;28;20406;-68
2021/12/25 12:50:11;;;;;;;1999.90;999.90;;;4.90;99.90;;;;;;4971897;28;20409;-69
2021/12/25 12:52:40;;;;;;;1999.90;999.90;;;4.90;99.90;;;;;;4971481;28;20402;-68
2021/12/25 12:55:28;;;;;;;1999.90;999.90;;;4.60;99.90;;;;;;4971242;28;20459;-69
2021/12/25 12:58:18;;;;;;;1999.90;999.90;;;4.60;99.90;;;;;;4971922;28;20406;-68
2021/12/25 13:00:49;;;;;;;1999.90;999.90;;;4.70;99.90;;;;;;4971337;28;20406;-69
2021/12/25 13:03:17;;;;;;;1999.90;999.90;;;4.60;99.90;;;;;;4971591;28;20198;-68
2021/12/25 13:05:53;;;;;;;1999.90;999.90;;;4.60;99.90;;;;;;4971306;28;20204;-69
2021/12/25 13:08:22;;;;;;;1999.90;999.90;;;4.60;99.90;;;;;;4971507;28;20252;-69
2021/12/25 13:13:22;;;;;;;1999.90;999.90;;;4.50;99.90;;;;;;4971405;28;20679;-69
2021/12/25 13:15:58;;;;;;;1999.90;999.90;;;4.50;99.90;;;;;;4970968;28;20422;-69
2021/12/25 13:18:33;;;;;;;1999.90;999.90;;;4.40;99.90;;;;;;4971493;28;20186;-69
2021/12/25 13:21:01;;;;;;;1999.90;999.90;;;4.30;99.90;;;;;;4971355;28;20301;-69
2021/12/25 13:23:37;;;;;;;1999.90;999.90;;;4.20;99.90;;;;;;4971046;28;20203;-69
2021/12/25 13:26:04;;;;;;;1999.90;999.90;;;4.20;99.90;;;;;;4971242;28;20413;-68
2021/12/25 13:28:33;;;;;;;1999.90;999.90;;;4.00;99.90;;;;;;4971424;28;20289;-68
2021/12/25 13:31:04;;;;;;;1999.90;999.90;;;4.20;99.90;;;;;;4970788;28;20193;-68
2021/12/25 13:33:34;;;;;;;1999.90;999.90;;;4.30;99.90;;;;;;4971323;28;20194;-67
2021/12/25 13:36:01;;;;;;;1999.90;999.90;;;4.20;99.90;;;;;;4971182;28;20182;-68